Time;durP1;ratioP1;P1;durP2;ratioP2;P2;SDS_P1;SDS_P2;PMS_P1;PMS_P2;Temp;Humidity;BMP_temperature;BMP_pressure;BME280_temperature;BME280_humidity;BME280_pressure;Samples;Min_cycle;Max_cycle;Signal;HPM_P1;HPM_P2
2023/01/29 00:01:51;;;;;;;26.30;23.55;;;3.70;99.90;;;;;;5116031;27;20057;-73
2023/01/29 00:04:18;;;;;;;27.33;24.02;;;3.70;99.90;;;;;;5098236;27;20047;-73
2023/01/29 00:06:44;;;;;;;25.42;22.83;;;3.60;99.90;;;;;;5112573;27;20402;-74
2023/01/29 00:09:11;;;;;;;25.70;23.08;;;3.70;99.90;;;;;;5126853;27;20039;-74
2023/01/29 00:11:37;;;;;;;26.23;23.42;;;3.70;99.90;;;;;;5111078;27;20796;-73
2023/01/29 00:14:03;;;;;;;27.35;24.15;;;3.70;99.90;;;;;;5111397;27;20039;-73
2023/01/29 00:16:29;;;;;;;26.45;23.83;;;3.70;99.90;;;;;;5131616;27;20494;-73
2023/01/29 00:18:55;;;;;;;27.00;24.30;;;3.70;99.90;;;;;;5108742;27;20771;-74
2023/01/29 00:21:21;;;;;;;27.63;24.92;;;3.70;99.90;;;;;;5097735;27;20447;-73
2023/01/29 00:23:48;;;;;;;27.38;24.63;;;3.70;99.90;;;;;;5130964;27;20401;-73
2023/01/29 00:26:14;;;;;;;27.45;24.55;;;3.70;99.90;;;;;;5128165;27;20493;-72
2023/01/29 00:28:40;;;;;;;27.83;24.83;;;3.70;99.90;;;;;;5132927;27;20066;-74
2023/01/29 00:31:11;;;;;;;27.45;24.65;;;3.70;99.90;;;;;;5097881;27;20090;-73
2023/01/29 00:33:37;;;;;;;28.38;25.58;;;3.70;99.90;;;;;;5111618;27;20096;-73
2023/01/29 00:36:05;;;;;;;28.63;25.60;;;3.70;99.90;;;;;;5130114;27;20043;-73
2023/01/29 00:38:32;;;;;;;28.35;25.38;;;3.70;99.90;;;;;;5112764;27;20118;-73
2023/01/29 00:46:32;;;;;;;29.48;26.67;;;3.60;99.90;;;;;;5113331;27;20085;-73
2023/01/29 00:48:57;;;;;;;29.88;26.77;;;3.70;99.90;;;;;;5110448;27;20047;-73
2023/01/29 00:51:23;;;;;;;30.02;27.00;;;3.70;99.90;;;;;;5090181;27;20030;-74
2023/01/29 00:53:49;;;;;;;30.45;27.40;;;3.80;99.90;;;;;;5116174;27;20553;-73
2023/01/29 00:56:15;;;;;;;30.33;27.10;;;3.70;99.90;;;;;;5095621;27;20073;-74
2023/01/29 00:58:40;;;;;;;30.52;27.45;;;3.70;99.90;;;;;;5094841;27;20039;-73
2023/01/29 01:01:06;;;;;;;29.55;26.55;;;3.70;99.90;;;;;;5105525;27;20047;-74
2023/01/29 01:03:34;;;;;;;29.67;26.75;;;3.80;99.90;;;;;;5114538;27;20043;-73
2023/01/29 01:06:05;;;;;;;30.27;27.27;;;3.70;99.90;;;;;;5104128;27;20054;-74
2023/01/29 01:11:15;;;;;;;30.90;27.75;;;3.80;99.90;;;;;;5129201;27;20053;-74
2023/01/29 01:13:41;;;;;;;31.08;27.98;;;3.70;99.90;;;;;;5108867;27;20146;-73
2023/01/29 01:16:15;;;;;;;29.95;26.88;;;3.80;99.90;;;;;;5082297;27;20701;-74
2023/01/29 01:18:41;;;;;;;29.00;26.20;;;3.80;99.90;;;;;;5127737;27;20153;-74
2023/01/29 01:21:07;;;;;;;28.88;25.83;;;3.80;99.90;;;;;;5122379;27;20150;-74
2023/01/29 01:23:34;;;;;;;31.02;28.00;;;3.80;99.90;;;;;;5109659;27;20035;-74
2023/01/29 01:26:00;;;;;;;28.48;25.55;;;3.80;99.90;;;;;;5127109;27;20793;-74
2023/01/29 01:28:26;;;;;;;29.98;26.98;;;3.80;99.90;;;;;;5111035;27;20419;-73
2023/01/29 01:30:53;;;;;;;28.20;25.27;;;3.80;99.90;;;;;;5109131;27;20054;-74
2023/01/29 01:33:19;;;;;;;28.73;25.83;;;3.80;99.90;;;;;;5127611;27;20047;-74
2023/01/29 01:35:44;;;;;;;31.70;26.40;;;3.80;99.90;;;;;;5111198;27;20409;-74
2023/01/29 01:38:10;;;;;;;28.35;25.35;;;3.80;99.90;;;;;;5126036;27;20089;-74
2023/01/29 01:40:36;;;;;;;28.58;25.88;;;3.80;99.90;;;;;;5105884;27;20664;-74
2023/01/29 01:43:02;;;;;;;29.77;26.67;;;3.80;99.90;;;;;;5127733;27;20043;-73
2023/01/29 01:45:33;;;;;;;30.75;27.45;;;3.80;99.90;;;;;;5095623;27;20081;-73
2023/01/29 01:48:17;;;;;;;28.52;25.52;;;3.80;99.90;;;;;;5128003;27;20133;-74
2023/01/29 01:50:58;;;;;;;29.67;26.50;;;3.80;99.90;;;;;;5132445;27;20038;-74
2023/01/29 01:53:33;;;;;;;30.15;27.23;;;3.80;99.90;;;;;;5128739;27;20563;-74
2023/01/29 01:56:03;;;;;;;30.77;27.77;;;3.80;99.90;;;;;;5125702;27;20049;-73
2023/01/29 01:58:44;;;;;;;31.15;27.88;;;3.80;99.90;;;;;;5129125;27;20033;-73
2023/01/29 02:01:11;;;;;;;29.13;26.13;;;3.80;99.90;;;;;;5124846;27;20120;-74
2023/01/29 02:09:35;;;;;;;31.63;27.65;;;3.80;99.90;;;;;;5122494;27;20261;-74
2023/01/29 02:12:11;;;;;;;29.80;26.88;;;3.80;99.90;;;;;;5108674;27;20061;-75
2023/01/29 02:14:39;;;;;;;30.55;27.50;;;3.80;99.90;;;;;;5125524;27;20401;-73
2023/01/29 02:17:16;;;;;;;29.20;26.38;;;3.90;99.90;;;;;;5112193;27;20142;-74
2023/01/29 02:19:53;;;;;;;29.70;26.70;;;3.90;99.90;;;;;;5126466;27;20054;-74
2023/01/29 02:22:37;;;;;;;31.08;27.88;;;3.90;99.90;;;;;;5124647;27;20046;-74
2023/01/29 02:25:08;;;;;;;30.50;27.40;;;3.90;99.90;;;;;;5126350;27;20082;-74
2023/01/29 02:28:02;;;;;;;31.10;27.75;;;3.90;99.90;;;;;;5113809;27;20177;-74
2023/01/29 02:30:36;;;;;;;31.38;27.95;;;3.90;99.90;;;;;;5128661;27;20494;-74
2023/01/29 02:33:16;;;;;;;30.55;27.35;;;3.90;99.90;;;;;;5127463;27;20042;-74
2023/01/29 02:35:45;;;;;;;30.50;27.30;;;3.90;99.90;;;;;;5107937;27;20761;-74
2023/01/29 02:38:37;;;;;;;29.38;26.38;;;3.90;99.90;;;;;;5125017;27;20053;-74
2023/01/29 02:41:09;;;;;;;29.58;26.40;;;3.90;99.90;;;;;;5124167;27;20054;-74
2023/01/29 02:43:50;;;;;;;29.83;26.73;;;4.00;99.90;;;;;;5130779;27;20511;-74
2023/01/29 02:46:34;;;;;;;29.58;26.58;;;4.00;99.90;;;;;;5104227;27;20386;-74
2023/01/29 02:49:16;;;;;;;30.27;27.08;;;4.00;99.90;;;;;;5127521;27;20062;-74
2023/01/29 02:52:06;;;;;;;29.33;26.17;;;4.00;99.90;;;;;;5110809;27;20043;-74
2023/01/29 02:54:44;;;;;;;28.27;25.50;;;4.00;99.90;;;;;;5114646;27;20043;-74
2023/01/29 02:57:27;;;;;;;28.25;25.35;;;3.90;99.90;;;;;;5138295;27;20408;-74
2023/01/29 02:59:56;;;;;;;31.75;26.08;;;3.90;99.90;;;;;;5129249;27;20058;-74
2023/01/29 03:02:36;;;;;;;29.33;26.25;;;3.90;99.90;;;;;;5130097;27;20038;-73
2023/01/29 03:05:07;;;;;;;28.93;26.03;;;3.90;99.90;;;;;;5130890;27;20050;-73
2023/01/29 03:07:45;;;;;;;27.83;24.92;;;4.00;99.90;;;;;;5119604;27;20372;-74
2023/01/29 03:10:18;;;;;;;29.02;25.92;;;3.90;99.90;;;;;;5112888;27;20505;-73
2023/01/29 03:12:49;;;;;;;29.10;25.88;;;3.90;99.90;;;;;;5123677;27;20052;-74
2023/01/29 03:15:23;;;;;;;29.67;26.52;;;3.90;99.90;;;;;;5122280;27;20043;-74
2023/01/29 03:17:52;;;;;;;29.08;26.08;;;4.00;99.90;;;;;;5132228;27;20046;-74
2023/01/29 03:20:24;;;;;;;28.88;26.08;;;3.90;99.90;;;;;;5130468;27;20046;-75
2023/01/29 03:22:57;;;;;;;31.23;26.50;;;3.90;99.90;;;;;;5141230;27;20037;-74
2023/01/29 03:34:23;;;;;;;28.77;25.77;;;3.90;99.90;;;;;;5127910;27;20054;-74
2023/01/29 03:37:06;;;;;;;27.73;25.05;;;3.90;99.90;;;;;;5143946;27;20103;-73
2023/01/29 03:39:33;;;;;;;27.83;25.05;;;3.90;99.90;;;;;;5125004;27;20027;-74
2023/01/29 03:42:01;;;;;;;29.23;26.23;;;3.90;99.90;;;;;;5105722;27;20039;-74
2023/01/29 03:44:51;;;;;;;26.92;24.13;;;3.90;99.90;;;;;;5128768;27;20039;-74
2023/01/29 03:47:31;;;;;;;27.65;24.95;;;3.90;99.90;;;;;;5129793;27;20057;-73
2023/01/29 03:50:02;;;;;;;27.92;25.13;;;3.90;99.90;;;;;;5135931;27;20062;-74
2023/01/29 03:52:53;;;;;;;28.48;25.58;;;4.00;99.90;;;;;;5119266;27;20047;-73
2023/01/29 03:55:29;;;;;;;27.45;24.65;;;4.00;99.90;;;;;;5141548;27;20035;-74
2023/01/29 03:58:28;;;;;;;26.75;23.95;;;4.00;99.90;;;;;;5145377;27;20850;-75
2023/01/29 04:01:14;;;;;;;28.38;25.45;;;4.00;99.90;;;;;;5098816;27;20406;-74
2023/01/29 04:03:51;;;;;;;29.35;26.35;;;4.00;99.90;;;;;;5132661;27;20121;-74
2023/01/29 04:06:21;;;;;;;29.45;26.52;;;4.00;99.90;;;;;;5127402;27;20062;-74
2023/01/29 04:09:06;;;;;;;30.42;27.30;;;4.00;99.90;;;;;;5117480;27;20047;-73
2023/01/29 04:11:35;;;;;;;31.20;28.00;;;4.00;99.90;;;;;;5145407;27;20035;-73
2023/01/29 04:14:01;;;;;;;31.00;27.88;;;4.00;99.90;;;;;;5129995;27;20047;-73
2023/01/29 04:16:40;;;;;;;31.55;28.38;;;4.00;99.90;;;;;;5139591;27;20038;-73
2023/01/29 04:19:07;;;;;;;32.63;29.27;;;4.00;99.90;;;;;;5132403;27;20103;-73
2023/01/29 04:21:38;;;;;;;32.65;29.15;;;4.00;99.90;;;;;;5120843;27;20051;-73
2023/01/29 04:24:06;;;;;;;31.70;28.48;;;4.00;99.90;;;;;;5133158;27;20151;-73
2023/01/29 04:26:52;;;;;;;33.10;29.65;;;4.00;99.90;;;;;;5116470;27;20587;-75
2023/01/29 04:29:26;;;;;;;31.48;28.27;;;4.10;99.90;;;;;;5129502;27;20047;-75
2023/01/29 04:32:16;;;;;;;33.47;30.08;;;4.00;99.90;;;;;;5129593;27;20061;-75
2023/01/29 04:35:17;;;;;;;33.63;30.00;;;4.00;99.90;;;;;;5130114;27;20047;-74
2023/01/29 04:37:49;;;;;;;33.38;29.90;;;4.00;99.90;;;;;;5086061;27;20077;-75
2023/01/29 04:40:31;;;;;;;32.92;29.50;;;4.10;99.90;;;;;;5130285;27;20081;-75
2023/01/29 04:43:06;;;;;;;35.30;31.77;;;4.00;99.90;;;;;;5131365;27;20054;-74
2023/01/29 04:46:06;;;;;;;33.80;30.30;;;4.10;99.90;;;;;;5129719;27;20035;-74
2023/01/29 04:49:00;;;;;;;36.97;33.22;;;4.00;99.90;;;;;;5120678;27;20084;-74
2023/01/29 04:51:57;;;;;;;36.72;33.05;;;4.00;99.90;;;;;;5121384;27;20043;-73
2023/01/29 04:54:23;;;;;;;35.55;31.85;;;4.10;99.90;;;;;;5113513;27;20239;-74
2023/01/29 04:57:07;;;;;;;35.95;32.13;;;4.10;99.90;;;;;;5137041;27;20055;-73
2023/01/29 04:59:40;;;;;;;35.63;31.83;;;4.10;99.90;;;;;;5118538;27;20082;-73
2023/01/29 05:02:09;;;;;;;37.72;33.92;;;4.10;99.90;;;;;;5130890;27;20047;-74
2023/01/29 05:04:38;;;;;;;37.25;33.45;;;4.10;99.90;;;;;;5118862;27;20039;-73
2023/01/29 05:07:11;;;;;;;36.72;32.95;;;4.10;99.90;;;;;;5108638;27;20047;-74
2023/01/29 05:09:38;;;;;;;35.45;31.85;;;4.10;99.90;;;;;;5131930;27;20078;-73
2023/01/29 05:12:07;;;;;;;36.20;32.50;;;4.10;99.90;;;;;;5124207;27;20043;-73
2023/01/29 05:14:34;;;;;;;37.67;33.88;;;4.10;99.90;;;;;;5114291;27;20042;-73
2023/01/29 05:17:06;;;;;;;36.72;33.17;;;4.10;99.90;;;;;;5139153;27;20493;-73
2023/01/29 05:19:32;;;;;;;36.70;33.03;;;4.10;99.90;;;;;;5130332;27;20047;-74
2023/01/29 05:21:58;;;;;;;35.30;31.70;;;4.20;99.90;;;;;;5133164;27;20053;-73
2023/01/29 05:24:26;;;;;;;37.00;33.42;;;4.10;99.90;;;;;;5119516;27;20407;-74
2023/01/29 05:29:42;;;;;;;35.03;31.60;;;4.10;99.90;;;;;;5134547;27;20062;-75
2023/01/29 05:32:08;;;;;;;36.58;33.08;;;4.10;99.90;;;;;;5132770;27;20044;-74
2023/01/29 05:34:34;;;;;;;36.22;32.72;;;4.30;99.90;;;;;;5124846;27;20068;-75
2023/01/29 05:37:02;;;;;;;37.42;33.83;;;4.20;99.90;;;;;;5109391;27;20138;-75
2023/01/29 05:39:28;;;;;;;37.63;33.88;;;4.20;99.90;;;;;;5120982;27;20113;-75
2023/01/29 05:41:54;;;;;;;37.42;33.83;;;4.10;99.90;;;;;;5122520;27;20074;-75
2023/01/29 05:44:20;;;;;;;37.35;33.83;;;4.20;99.90;;;;;;5118119;27;20520;-75
2023/01/29 05:46:46;;;;;;;36.90;33.10;;;4.10;99.90;;;;;;5119281;27;20508;-74
2023/01/29 05:49:12;;;;;;;39.40;35.70;;;4.10;99.90;;;;;;5139068;27;20051;-73
2023/01/29 05:51:38;;;;;;;38.67;34.80;;;4.10;99.90;;;;;;5137935;27;20050;-73
2023/01/29 05:54:04;;;;;;;38.40;34.70;;;4.10;99.90;;;;;;5124019;27;20400;-73
2023/01/29 05:56:29;;;;;;;40.25;36.40;;;4.10;99.90;;;;;;5098700;27;20119;-73
2023/01/29 05:58:56;;;;;;;38.05;34.40;;;4.10;99.90;;;;;;5137034;27;20043;-73
2023/01/29 06:01:24;;;;;;;38.22;34.42;;;4.10;99.90;;;;;;5112354;27;20039;-73
2023/01/29 06:03:49;;;;;;;40.45;36.58;;;4.10;99.90;;;;;;5134174;27;20086;-74
2023/01/29 06:06:16;;;;;;;39.13;35.38;;;4.10;99.90;;;;;;5144776;27;20078;-73
2023/01/29 06:08:42;;;;;;;41.13;37.28;;;4.00;99.90;;;;;;5113846;27;20039;-73
2023/01/29 06:11:10;;;;;;;40.08;36.28;;;4.00;99.90;;;;;;5140033;27;20039;-72
2023/01/29 06:13:37;;;;;;;40.63;36.80;;;4.10;99.90;;;;;;5135009;27;20131;-75
2023/01/29 06:16:07;;;;;;;40.15;36.38;;;4.10;99.90;;;;;;5095694;27;20137;-73
2023/01/29 06:18:34;;;;;;;;;;;4.10;99.90;;;;;;5118835;27;20042;-74
2023/01/29 06:21:01;;;;;;;40.90;36.95;;;4.10;99.90;;;;;;5126409;27;19950;-73
2023/01/29 06:23:27;;;;;;;39.92;36.20;;;4.00;99.90;;;;;;5117317;27;20039;-73
2023/01/29 06:25:53;;;;;;;41.85;37.67;;;4.10;99.90;;;;;;5096082;27;20064;-74
2023/01/29 06:28:19;;;;;;;41.45;37.25;;;4.10;99.90;;;;;;5114057;27;20054;-73
2023/01/29 06:30:44;;;;;;;41.20;37.40;;;4.10;99.90;;;;;;5130590;27;20039;-73
2023/01/29 06:33:10;;;;;;;40.67;36.88;;;4.10;99.90;;;;;;5139150;27;20488;-73
2023/01/29 06:35:36;;;;;;;40.83;37.08;;;4.10;99.90;;;;;;5137950;27;20035;-73
2023/01/29 06:38:02;;;;;;;42.80;38.70;;;4.00;99.90;;;;;;5132237;27;20040;-74
2023/01/29 06:40:27;;;;;;;40.03;36.33;;;4.10;99.90;;;;;;5112001;28;20046;-73
2023/01/29 06:42:53;;;;;;;39.38;35.58;;;4.10;99.90;;;;;;5108039;27;20405;-74
2023/01/29 06:45:19;;;;;;;40.78;37.00;;;4.10;99.90;;;;;;5120263;28;20213;-74
2023/01/29 06:47:45;;;;;;;41.63;37.75;;;4.10;99.90;;;;;;5110502;28;20448;-74
2023/01/29 06:50:11;;;;;;;41.65;37.60;;;4.10;99.90;;;;;;5127434;27;20619;-74
2023/01/29 06:52:36;;;;;;;41.60;37.58;;;4.10;99.90;;;;;;5110540;28;20062;-74
2023/01/29 06:55:02;;;;;;;42.13;38.22;;;4.20;99.90;;;;;;5109566;28;20054;-76
2023/01/29 06:57:29;;;;;;;42.63;38.45;;;4.10;99.90;;;;;;5118294;27;20068;-74
2023/01/29 06:59:54;;;;;;;40.42;36.63;;;4.10;99.90;;;;;;5132666;27;20201;-73
2023/01/29 07:02:21;;;;;;;42.38;38.38;;;4.00;99.90;;;;;;5132833;27;20063;-73
2023/01/29 07:04:46;;;;;;;42.80;38.80;;;4.10;99.90;;;;;;5131550;27;20062;-73
2023/01/29 07:07:12;;;;;;;44.45;40.28;;;4.10;99.90;;;;;;5116371;27;20246;-74
2023/01/29 07:09:42;;;;;;;43.38;39.28;;;4.10;99.90;;;;;;5143781;27;20485;-73
2023/01/29 07:12:09;;;;;;;43.22;39.05;;;4.10;99.90;;;;;;5134878;27;20050;-72
2023/01/29 07:14:35;;;;;;;43.20;39.28;;;4.10;99.90;;;;;;5099977;27;20249;-73
2023/01/29 07:17:00;;;;;;;43.53;39.38;;;4.10;99.90;;;;;;5120009;27;20186;-73
2023/01/29 07:19:26;;;;;;;44.70;40.00;;;4.00;99.90;;;;;;5126379;27;20042;-74
2023/01/29 07:21:52;;;;;;;44.47;40.08;;;4.00;99.90;;;;;;5111048;27;20038;-74
2023/01/29 07:24:18;;;;;;;44.78;40.45;;;4.00;99.90;;;;;;5101064;28;20450;-74
2023/01/29 07:26:44;;;;;;;44.42;40.22;;;4.00;99.90;;;;;;5103837;27;20034;-74
2023/01/29 07:29:10;;;;;;;45.22;40.95;;;4.00;99.90;;;;;;5139364;27;20082;-73
2023/01/29 07:31:35;;;;;;;44.22;39.88;;;4.00;99.90;;;;;;5135440;27;21971;-74
2023/01/29 07:34:02;;;;;;;44.47;40.10;;;4.00;99.90;;;;;;5130383;27;20042;-73
2023/01/29 07:36:28;;;;;;;44.17;40.15;;;4.10;99.90;;;;;;5125431;27;20046;-73
2023/01/29 07:38:54;;;;;;;43.90;39.42;;;4.00;99.90;;;;;;5135984;27;20074;-73
2023/01/29 07:41:20;;;;;;;44.13;39.92;;;4.10;99.90;;;;;;5140250;27;20054;-73
2023/01/29 07:43:46;;;;;;;44.20;39.95;;;4.00;99.90;;;;;;5117716;27;20077;-73
2023/01/29 07:46:12;;;;;;;43.92;39.70;;;4.00;99.90;;;;;;5115770;27;20091;-73
2023/01/29 07:48:38;;;;;;;45.88;41.40;;;4.00;99.90;;;;;;5119773;27;20050;-74
2023/01/29 07:51:04;;;;;;;46.30;42.00;;;4.10;99.90;;;;;;5140610;27;20043;-73
2023/01/29 07:53:30;;;;;;;45.13;40.63;;;4.00;99.90;;;;;;5119788;27;20039;-74
2023/01/29 07:55:56;;;;;;;44.83;40.53;;;4.00;99.90;;;;;;5115755;27;20623;-74
2023/01/29 07:58:22;;;;;;;44.83;40.50;;;4.00;99.90;;;;;;5104414;27;20460;-73
2023/01/29 08:00:49;;;;;;;46.58;42.03;;;4.00;99.90;;;;;;5120684;27;20046;-74
2023/01/29 08:03:17;;;;;;;45.65;41.45;;;4.00;99.90;;;;;;5116095;27;20042;-74
2023/01/29 08:05:43;;;;;;;45.85;41.42;;;4.00;99.90;;;;;;5115907;27;20588;-76
2023/01/29 08:08:09;;;;;;;45.25;40.65;;;4.00;99.90;;;;;;5114226;27;20039;-76
2023/01/29 08:10:36;;;;;;;45.67;41.10;;;4.00;99.90;;;;;;5107773;27;20503;-76
2023/01/29 08:13:03;;;;;;;47.35;42.65;;;4.10;99.90;;;;;;5135425;27;20049;-77
2023/01/29 08:15:29;;;;;;;47.88;42.97;;;4.00;99.90;;;;;;5115004;27;20847;-77
2023/01/29 08:17:55;;;;;;;46.17;41.42;;;4.00;99.90;;;;;;5115823;27;20052;-76
2023/01/29 08:20:21;;;;;;;45.60;41.08;;;4.00;99.90;;;;;;5100097;27;20047;-76
2023/01/29 08:22:47;;;;;;;46.53;41.95;;;4.00;99.90;;;;;;5113193;27;20562;-76
2023/01/29 08:25:14;;;;;;;47.95;43.17;;;4.00;99.90;;;;;;5113501;27;20473;-76
2023/01/29 08:27:40;;;;;;;47.70;42.97;;;4.00;99.90;;;;;;5113092;27;20308;-76
2023/01/29 08:30:07;;;;;;;47.78;42.85;;;4.00;99.90;;;;;;5130030;27;20076;-76
2023/01/29 08:32:33;;;;;;;47.53;42.78;;;4.10;99.90;;;;;;5119066;27;20468;-76
2023/01/29 08:34:58;;;;;;;47.08;42.30;;;4.20;99.90;;;;;;5112404;27;20532;-77
2023/01/29 08:37:24;;;;;;;45.30;40.75;;;4.20;99.90;;;;;;5100855;27;20225;-76
2023/01/29 08:39:50;;;;;;;47.40;42.53;;;4.20;99.90;;;;;;5097882;27;20047;-76
2023/01/29 08:42:16;;;;;;;45.55;40.85;;;4.20;99.90;;;;;;5110086;27;20068;-76
2023/01/29 08:44:41;;;;;;;44.92;40.22;;;4.30;99.90;;;;;;5110242;27;20039;-76
2023/01/29 08:47:07;;;;;;;46.28;41.63;;;4.30;99.90;;;;;;5108512;27;20392;-76
2023/01/29 08:49:33;;;;;;;44.53;39.83;;;4.30;99.90;;;;;;5125574;27;20652;-76
2023/01/29 08:51:59;;;;;;;44.17;39.63;;;4.30;99.90;;;;;;5111193;27;20122;-76
2023/01/29 08:54:25;;;;;;;47.45;42.40;;;4.30;99.90;;;;;;5126977;27;20405;-75
2023/01/29 08:56:51;;;;;;;45.95;40.97;;;4.30;99.90;;;;;;5084549;27;20104;-76
2023/01/29 08:59:17;;;;;;;45.28;40.67;;;4.30;99.90;;;;;;5128624;27;20052;-75
2023/01/29 09:01:42;;;;;;;46.00;41.15;;;4.30;99.90;;;;;;5131963;27;20114;-76
2023/01/29 09:04:08;;;;;;;43.47;39.08;;;4.30;99.90;;;;;;5121862;27;20125;-76
2023/01/29 09:06:34;;;;;;;43.95;39.25;;;4.40;99.90;;;;;;5110517;27;20047;-75
2023/01/29 09:09:00;;;;;;;43.17;38.53;;;4.40;99.90;;;;;;5129970;27;20054;-75
2023/01/29 09:11:26;;;;;;;45.22;40.53;;;4.40;99.90;;;;;;5128120;27;20051;-75
2023/01/29 09:13:52;;;;;;;43.33;38.78;;;4.40;99.90;;;;;;5132546;27;20134;-75
2023/01/29 09:16:17;;;;;;;43.55;38.97;;;4.40;99.90;;;;;;5109198;27;20488;-76
2023/01/29 09:18:43;;;;;;;45.40;40.70;;;4.40;99.90;;;;;;5109166;27;20066;-75
2023/01/29 09:21:09;;;;;;;44.00;39.50;;;4.40;99.90;;;;;;5080456;27;20503;-75
2023/01/29 09:23:35;;;;;;;44.97;40.42;;;4.40;99.90;;;;;;5112406;27;20047;-75
2023/01/29 09:26:01;;;;;;;45.08;40.47;;;4.50;99.90;;;;;;5127922;27;20323;-76
2023/01/29 09:28:27;;;;;;;45.15;40.40;;;4.40;99.90;;;;;;5112120;27;20137;-75
2023/01/29 09:30:52;;;;;;;47.13;42.25;;;4.50;99.90;;;;;;5116196;27;20047;-75
2023/01/29 09:33:18;;;;;;;44.70;40.03;;;4.50;99.90;;;;;;5110215;27;20062;-75
2023/01/29 09:35:47;;;;;;;47.20;42.20;;;4.60;99.90;;;;;;5111465;27;20045;-76
2023/01/29 09:38:13;;;;;;;46.55;41.63;;;4.60;99.90;;;;;;5109532;27;20417;-72
2023/01/29 09:40:51;;;;;;;47.33;42.33;;;4.60;99.90;;;;;;5111810;27;20043;-75
2023/01/29 09:43:44;;;;;;;45.67;40.95;;;4.60;99.90;;;;;;5111195;27;20050;-75
2023/01/29 09:46:40;;;;;;;45.63;40.83;;;4.60;99.90;;;;;;5126705;27;20050;-77
2023/01/29 09:49:28;;;;;;;43.88;39.28;;;4.50;99.90;;;;;;5132818;27;20046;-76
2023/01/29 09:52:15;;;;;;;44.60;40.03;;;4.50;99.90;;;;;;5131453;27;20043;-76
2023/01/29 09:54:56;;;;;;;48.38;43.03;;;4.50;99.90;;;;;;5135615;27;20393;-76
2023/01/29 09:57:49;;;;;;;45.70;40.67;;;4.50;99.90;;;;;;5119217;27;20073;-77
2023/01/29 10:00:31;;;;;;;44.13;39.63;;;4.60;99.90;;;;;;5114788;27;20055;-76
2023/01/29 10:03:38;;;;;;;48.25;43.05;;;4.60;99.90;;;;;;5133411;27;20074;-73
2023/01/29 10:06:14;;;;;;;46.50;41.50;;;4.60;99.90;;;;;;5123338;27;20049;-76
2023/01/29 10:08:44;;;;;;;46.80;41.67;;;4.70;99.90;;;;;;5129502;27;20058;-76
2023/01/29 10:11:31;;;;;;;47.75;42.78;;;4.60;99.90;;;;;;5136339;27;20126;-76
2023/01/29 10:14:16;;;;;;;46.30;41.45;;;4.60;99.90;;;;;;5113616;27;20499;-76
2023/01/29 10:17:04;;;;;;;46.75;41.85;;;4.60;99.90;;;;;;5135086;27;20417;-75
2023/01/29 10:19:48;;;;;;;44.63;39.92;;;4.70;99.90;;;;;;5133199;27;20043;-75
2023/01/29 10:22:27;;;;;;;44.85;40.22;;;4.70;99.90;;;;;;5116862;27;20092;-76
2023/01/29 10:25:02;;;;;;;46.17;41.42;;;4.70;99.90;;;;;;5110124;27;20532;-76
2023/01/29 10:27:39;;;;;;;47.63;42.70;;;4.70;99.90;;;;;;5131847;27;20120;-75
2023/01/29 10:30:30;;;;;;;44.75;40.05;;;4.80;99.90;;;;;;5115788;27;20367;-75
2023/01/29 10:33:04;;;;;;;44.63;40.08;;;4.80;99.90;;;;;;5125887;27;20049;-75
2023/01/29 10:35:43;;;;;;;47.65;42.67;;;4.70;99.90;;;;;;5130935;27;20060;-74
2023/01/29 10:38:26;;;;;;;44.10;39.55;;;4.70;99.90;;;;;;5131639;27;20095;-74
2023/01/29 10:40:58;;;;;;;45.65;40.72;;;4.70;99.90;;;;;;5120894;27;20527;-74
2023/01/29 10:43:36;;;;;;;45.70;40.75;;;4.80;99.90;;;;;;5118169;27;20047;-74
2023/01/29 10:46:32;;;;;;;42.83;38.55;;;4.70;99.90;;;;;;5127251;27;20488;-73
2023/01/29 10:49:13;;;;;;;43.35;38.85;;;4.80;99.90;;;;;;5133048;27;20054;-74
2023/01/29 10:51:47;;;;;;;43.42;38.92;;;4.80;99.90;;;;;;5116678;27;20444;-74
2023/01/29 10:54:39;;;;;;;43.17;38.50;;;4.70;99.90;;;;;;5116683;27;20047;-73
2023/01/29 10:57:31;;;;;;;45.75;40.95;;;4.70;99.90;;;;;;5124116;27;20592;-74
2023/01/29 11:00:18;;;;;;;48.15;42.03;;;4.70;99.90;;;;;;5130797;27;20047;-74
2023/01/29 11:02:45;;;;;;;43.85;39.15;;;4.70;99.90;;;;;;5126305;27;20039;-74
2023/01/29 11:05:36;;;;;;;45.22;40.58;;;4.70;99.90;;;;;;5136332;27;20043;-74
2023/01/29 11:08:09;;;;;;;45.28;40.47;;;4.70;99.90;;;;;;5130619;27;20118;-74
2023/01/29 11:10:46;;;;;;;46.30;41.40;;;4.70;99.90;;;;;;5139818;27;20058;-74
2023/01/29 11:13:17;;;;;;;48.13;42.75;;;4.80;99.90;;;;;;5121052;27;20517;-73
2023/01/29 11:15:43;;;;;;;48.30;43.28;;;4.80;99.90;;;;;;5124421;27;20107;-74
2023/01/29 11:18:13;;;;;;;48.67;43.63;;;4.80;99.90;;;;;;5144120;27;20042;-72
2023/01/29 11:20:40;;;;;;;48.25;43.00;;;4.80;99.90;;;;;;5137603;27;20047;-74
2023/01/29 11:23:27;;;;;;;47.38;42.33;;;4.80;99.90;;;;;;5127103;27;20035;-73
2023/01/29 11:25:54;;;;;;;50.08;44.53;;;4.80;99.90;;;;;;5140330;27;20082;-73
2023/01/29 11:28:36;;;;;;;52.55;47.10;;;4.80;99.90;;;;;;5136293;27;20047;-72
2023/01/29 11:31:02;;;;;;;51.10;45.75;;;4.80;99.90;;;;;;5148302;27;20260;-73
2023/01/29 11:33:29;;;;;;;47.15;42.17;;;4.80;99.90;;;;;;5118122;27;20045;-73
2023/01/29 11:35:56;;;;;;;50.78;45.10;;;4.90;99.90;;;;;;5141222;27;20603;-73
2023/01/29 11:38:28;;;;;;;49.45;44.25;;;4.90;99.90;;;;;;5117873;27;20038;-74
2023/01/29 11:41:17;;;;;;;49.55;44.22;;;4.90;99.90;;;;;;5134636;27;20102;-74
2023/01/29 11:43:43;;;;;;;47.57;42.53;;;4.90;99.90;;;;;;5116040;27;20118;-74
2023/01/29 11:46:14;;;;;;;47.47;42.38;;;5.00;99.90;;;;;;5097778;27;20118;-73
2023/01/29 11:48:41;;;;;;;47.63;42.72;;;5.00;99.90;;;;;;5131431;27;20493;-72
2023/01/29 11:51:10;;;;;;;48.08;43.13;;;5.00;99.90;;;;;;5136211;27;20576;-73
2023/01/29 11:53:45;;;;;;;49.05;43.75;;;5.00;99.90;;;;;;5121231;27;20498;-74
2023/01/29 11:56:16;;;;;;;47.92;42.80;;;5.00;99.90;;;;;;5130756;27;20047;-74
2023/01/29 11:58:43;;;;;;;51.25;45.67;;;5.10;99.90;;;;;;5142928;27;20054;-74
2023/01/29 12:01:10;;;;;;;48.85;43.55;;;5.00;99.90;;;;;;5113385;27;20051;-74
2023/01/29 12:03:43;;;;;;;47.50;41.88;;;5.00;99.90;;;;;;5120816;27;20035;-74
2023/01/29 12:06:27;;;;;;;45.72;41.00;;;5.00;99.90;;;;;;5112027;27;20417;-74
2023/01/29 12:09:01;;;;;;;44.80;40.35;;;5.00;99.90;;;;;;5132332;27;20061;-73
2023/01/29 12:11:36;;;;;;;43.65;39.03;;;5.10;99.90;;;;;;5113583;27;20051;-74
2023/01/29 12:14:32;;;;;;;43.58;38.90;;;5.10;99.90;;;;;;5139003;27;20481;-73
2023/01/29 12:17:20;;;;;;;42.75;38.25;;;5.20;99.90;;;;;;5118468;27;20123;-75
2023/01/29 12:19:57;;;;;;;45.10;40.28;;;5.20;99.90;;;;;;5125010;27;20078;-73
2023/01/29 12:23:07;;;;;;;44.05;39.35;;;5.20;99.90;;;;;;5121874;27;20039;-73
2023/01/29 12:25:48;;;;;;;43.22;38.60;;;5.30;99.90;;;;;;5105836;27;20549;-72
2023/01/29 12:28:37;;;;;;;43.95;39.30;;;5.30;99.90;;;;;;5129956;27;20145;-72
2023/01/29 12:31:32;;;;;;;40.85;36.58;;;5.30;99.90;;;;;;5134496;27;20130;-73
2023/01/29 12:34:26;;;;;;;41.63;37.42;;;5.40;99.90;;;;;;5123330;27;20050;-73
2023/01/29 12:37:22;;;;;;;41.00;36.65;;;5.40;99.90;;;;;;5119081;27;20093;-73
2023/01/29 12:39:50;;;;;;;40.30;36.15;;;5.40;99.90;;;;;;5136253;27;20506;-75
2023/01/29 12:42:21;;;;;;;43.72;39.08;;;5.40;99.90;;;;;;5123423;27;20085;-74
2023/01/29 12:45:09;;;;;;;44.38;39.72;;;5.30;99.90;;;;;;5112778;27;20038;-75
2023/01/29 12:48:05;;;;;;;42.67;38.22;;;5.40;99.90;;;;;;5132469;27;20426;-75
2023/01/29 12:50:32;;;;;;;43.42;38.85;;;5.40;99.90;;;;;;5126720;27;21572;-76
2023/01/29 12:53:04;;;;;;;43.38;38.83;;;5.30;99.90;;;;;;5109236;27;20383;-75
2023/01/29 12:55:41;;;;;;;43.38;38.67;;;5.30;99.90;;;;;;5135162;27;20047;-75
2023/01/29 12:58:23;;;;;;;44.90;40.28;;;5.30;99.90;;;;;;5137358;27;20134;-73
2023/01/29 13:00:53;;;;;;;41.70;37.33;;;5.30;99.90;;;;;;5143167;27;20129;-72
2023/01/29 13:03:25;;;;;;;45.35;40.60;;;5.30;99.90;;;;;;5132790;27;20500;-72
2023/01/29 13:05:54;;;;;;;44.88;40.03;;;5.30;99.90;;;;;;5131301;27;20513;-73
2023/01/29 13:08:25;;;;;;;45.23;40.43;;;5.20;99.90;;;;;;5128478;27;20078;-73
2023/01/29 13:10:53;;;;;;;50.85;44.65;;;5.20;99.90;;;;;;5115593;27;20038;-72
2023/01/29 13:13:43;;;;;;;48.42;43.25;;;5.10;99.90;;;;;;5114223;27;20054;-73
2023/01/29 13:16:14;;;;;;;48.58;43.40;;;5.10;99.90;;;;;;5116744;27;20043;-73
2023/01/29 13:18:45;;;;;;;51.13;45.17;;;5.10;99.90;;;;;;5111838;27;20369;-74
2023/01/29 13:21:26;;;;;;;51.28;45.13;;;5.10;99.90;;;;;;5122476;27;20047;-73
2023/01/29 13:24:16;;;;;;;51.17;45.65;;;5.10;99.90;;;;;;5133156;27;20073;-73
2023/01/29 13:26:49;;;;;;;51.22;45.17;;;5.00;99.90;;;;;;5123199;27;20391;-73
2023/01/29 13:29:29;;;;;;;51.17;45.63;;;5.00;99.90;;;;;;5115737;27;20046;-73
2023/01/29 13:31:57;;;;;;;54.88;48.90;;;5.00;99.90;;;;;;5115687;27;20149;-73